sensor_id;sensor_type;location;lat;lon;timestamp;pressure;altitude;pressure_sealevel;temperature;humidity
55679;BME280;41573;51.446;-2.018;2023-02-16T10:41:27;96066.47;;;10.94;100.00
55679;BME280;41573;51.446;-2.018;2023-02-16T10:44:02;96100.66;;;10.91;100.00
55679;BME280;41573;51.446;-2.018;2023-02-16T10:46:45;96138.94;;;10.90;100.00
55679;BME280;41573;51.446;-2.018;2023-02-16T11:02:24;96234.81;;;11.16;100.00
55679;BME280;41573;51.446;-2.018;2023-02-16T11:04:56;96252.63;;;11.16;100.00
55679;BME280;41573;51.446;-2.018;2023-02-16T11:07:27;96261.47;;;11.23;100.00
55679;BME280;41573;51.446;-2.018;2023-02-16T11:09:55;96288.91;;;11.24;100.00
55679;BME280;41573;51.446;-2.018;2023-02-16T11:12:37;96302.81;;;11.26;100.00
55679;BME280;41573;51.446;-2.018;2023-02-16T11:15:18;96319.66;;;11.33;100.00
55679;BME280;41573;51.446;-2.018;2023-02-16T11:20:35;96327.88;;;11.45;100.00
55679;BME280;41573;51.446;-2.018;2023-02-16T11:23:31;96318.66;;;11.61;100.00
55679;BME280;41573;51.446;-2.018;2023-02-16T11:26:04;96309.66;;;11.75;100.00
55679;BME280;41573;51.446;-2.018;2023-02-16T11:33:40;96365.69;;;12.09;100.00
55679;BME280;41573;51.446;-2.018;2023-02-16T11:36:33;96385.75;;;12.18;100.00
55679;BME280;41573;51.446;-2.018;2023-02-16T11:39:04;96417.38;;;12.21;100.00
55679;BME280;41573;51.446;-2.018;2023-02-16T11:41:31;96446.50;;;12.29;100.00
55679;BME280;41573;51.446;-2.018;2023-02-16T11:43:59;96482.19;;;12.35;100.00
55679;BME280;41573;51.446;-2.018;2023-02-16T11:46:26;96533.91;;;12.27;100.00
55679;BME280;41573;51.446;-2.018;2023-02-16T11:48:54;96576.41;;;12.29;100.00
55679;BME280;41573;51.446;-2.018;2023-02-16T11:51:32;96599.56;;;12.21;100.00
55679;BME280;41573;51.446;-2.018;2023-02-16T11:54:04;96628.72;;;12.30;100.00
55679;BME280;41573;51.446;-2.018;2023-02-16T11:56:33;96670.78;;;12.28;100.00
55679;BME280;41573;51.446;-2.018;2023-02-16T11:59:18;96712.84;;;12.26;100.00
55679;BME280;41573;51.446;-2.018;2023-02-16T12:07:45;96761.19;;;12.51;100.00
55679;BME280;41573;51.446;-2.018;2023-02-16T12:10:24;96779.47;;;12.54;100.00
55679;BME280;41573;51.446;-2.018;2023-02-16T12:15:34;96834.88;;;12.52;100.00
55679;BME280;41573;51.446;-2.018;2023-02-16T12:18:28;96855.81;;;12.48;100.00
55679;BME280;41573;51.446;-2.018;2023-02-16T12:21:15;96881.63;;;12.41;100.00
55679;BME280;41573;51.446;-2.018;2023-02-16T12:24:03;96891.25;;;12.42;100.00
55679;BME280;41573;51.446;-2.018;2023-02-16T12:29:08;96938.00;;;12.31;100.00
55679;BME280;41573;51.446;-2.018;2023-02-16T12:38:14;96952.63;;;12.64;100.00
55679;BME280;41573;51.446;-2.018;2023-02-16T12:40:58;96992.25;;;12.67;100.00
55679;BME280;41573;51.446;-2.018;2023-02-16T12:43:43;97024.09;;;12.68;100.00
55679;BME280;41573;51.446;-2.018;2023-02-16T12:46:23;97054.75;;;12.72;100.00
55679;BME280;41573;51.446;-2.018;2023-02-16T12:49:25;97085.13;;;12.71;100.00
55679;BME280;41573;51.446;-2.018;2023-02-16T12:51:59;97120.53;;;12.58;100.00
55679;BME280;41573;51.446;-2.018;2023-02-16T12:54:35;97151.94;;;12.56;100.00
55679;BME280;41573;51.446;-2.018;2023-02-16T12:57:07;97168.06;;;12.48;100.00
55679;BME280;41573;51.446;-2.018;2023-02-16T12:59:45;97181.50;;;12.40;100.00
55679;BME280;41573;51.446;-2.018;2023-02-16T13:02:37;97196.59;;;12.33;100.00
55679;BME280;41573;51.446;-2.018;2023-02-16T13:05:18;97185.19;;;12.39;100.00
55679;BME280;41573;51.446;-2.018;2023-02-16T13:07:49;97179.84;;;12.39;100.00
55679;BME280;41573;51.446;-2.018;2023-02-16T13:10:23;97206.81;;;12.44;100.00
55679;BME280;41573;51.446;-2.018;2023-02-16T13:12:59;97225.47;;;12.44;100.00
55679;BME280;41573;51.446;-2.018;2023-02-16T13:15:42;97239.53;;;12.38;100.00
55679;BME280;41573;51.446;-2.018;2023-02-16T13:18:17;97277.28;;;12.35;100.00
55679;BME280;41573;51.446;-2.018;2023-02-16T13:20:49;97277.66;;;12.32;100.00
55679;BME280;41573;51.446;-2.018;2023-02-16T13:34:56;97367.84;;;11.75;100.00
55679;BME280;41573;51.446;-2.018;2023-02-16T13:40:21;97340.47;;;11.81;100.00
55679;BME280;41573;51.446;-2.018;2023-02-16T13:43:29;97320.47;;;11.85;100.00
55679;BME280;41573;51.446;-2.018;2023-02-16T13:46:03;97314.97;;;12.02;100.00
55679;BME280;41573;51.446;-2.018;2023-02-16T13:48:37;97293.38;;;12.12;100.00
55679;BME280;41573;51.446;-2.018;2023-02-16T13:51:08;97305.28;;;12.24;100.00
55679;BME280;41573;51.446;-2.018;2023-02-16T13:53:38;97314.38;;;12.30;100.00
55679;BME280;41573;51.446;-2.018;2023-02-16T13:56:14;97320.53;;;12.30;100.00
55679;BME280;41573;51.446;-2.018;2023-02-16T13:58:42;97338.75;;;12.27;100.00
55679;BME280;41573;51.446;-2.018;2023-02-16T14:04:09;97396.38;;;11.89;100.00
55679;BME280;41573;51.446;-2.018;2023-02-16T14:06:41;97400.06;;;11.65;100.00
55679;BME280;41573;51.446;-2.018;2023-02-16T14:12:00;97392.00;;;11.27;100.00
55679;BME280;41573;51.446;-2.018;2023-02-16T14:33:46;97236.34;;;10.98;100.00
55679;BME280;41573;51.446;-2.018;2023-02-16T14:36:31;97230.63;;;11.10;100.00
55679;BME280;41573;51.446;-2.018;2023-02-16T14:38:59;97214.59;;;11.18;100.00
55679;BME280;41573;51.446;-2.018;2023-02-16T14:41:35;97214.91;;;11.38;100.00
55679;BME280;41573;51.446;-2.018;2023-02-16T14:49:52;97249.78;;;11.51;100.00
55679;BME280;41573;51.446;-2.018;2023-02-16T15:01:44;97317.94;;;11.84;100.00
55679;BME280;41573;51.446;-2.018;2023-02-16T15:04:25;97353.69;;;11.75;100.00
55679;BME280;41573;51.446;-2.018;2023-02-16T15:06:52;97382.19;;;11.74;100.00
55679;BME280;41573;51.446;-2.018;2023-02-16T15:09:26;97381.94;;;11.84;100.00
55679;BME280;41573;51.446;-2.018;2023-02-16T15:12:00;97364.78;;;12.10;100.00
55679;BME280;41573;51.446;-2.018;2023-02-16T15:20:07;97482.94;;;11.55;100.00
55679;BME280;41573;51.446;-2.018;2023-02-16T15:22:35;97494.13;;;11.43;100.00
55679;BME280;41573;51.446;-2.018;2023-02-16T15:25:29;97502.69;;;11.30;100.00
55679;BME280;41573;51.446;-2.018;2023-02-16T15:30:39;97504.44;;;11.06;100.00
55679;BME280;41573;51.446;-2.018;2023-02-16T15:33:29;97473.97;;;11.09;100.00
55679;BME280;41573;51.446;-2.018;2023-02-16T15:36:13;97475.81;;;11.00;100.00
55679;BME280;41573;51.446;-2.018;2023-02-16T15:39:01;97463.84;;;10.96;100.00
55679;BME280;41573;51.446;-2.018;2023-02-16T15:41:35;97445.22;;;10.96;100.00
55679;BME280;41573;51.446;-2.018;2023-02-16T15:44:04;97441.25;;;10.92;100.00
55679;BME280;41573;51.446;-2.018;2023-02-16T15:46:38;97448.56;;;10.90;100.00
55679;BME280;41573;51.446;-2.018;2023-02-16T15:49:28;97451.22;;;10.90;100.00
55679;BME280;41573;51.446;-2.018;2023-02-16T15:51:59;97474.22;;;10.82;100.00
55679;BME280;41573;51.446;-2.018;2023-02-16T15:54:31;97481.56;;;10.80;100.00
55679;BME280;41573;51.446;-2.018;2023-02-16T15:58:04;97505.50;;;10.72;100.00
55679;BME280;41573;51.446;-2.018;2023-02-16T16:00:05;97487.38;;;10.76;100.00
55679;BME280;41573;51.446;-2.018;2023-02-16T16:02:39;97528.78;;;10.70;100.00
55679;BME280;41573;51.446;-2.018;2023-02-16T16:07:47;97531.09;;;10.81;100.00
55679;BME280;41573;51.446;-2.018;2023-02-16T16:10:23;97541.94;;;10.80;100.00
55679;BME280;41573;51.446;-2.018;2023-02-16T16:12:51;97541.09;;;10.79;100.00
55679;BME280;41573;51.446;-2.018;2023-02-16T16:15:20;97556.91;;;10.81;100.00
55679;BME280;41573;51.446;-2.018;2023-02-16T16:17:47;97581.72;;;10.73;100.00
55679;BME280;41573;51.446;-2.018;2023-02-16T16:20:24;97609.66;;;10.61;100.00
55679;BME280;41573;51.446;-2.018;2023-02-16T16:23:01;97611.97;;;10.56;100.00
55679;BME280;41573;51.446;-2.018;2023-02-16T16:28:04;97638.56;;;10.39;100.00
55679;BME280;41573;51.446;-2.018;2023-02-16T16:30:42;97622.38;;;10.32;100.00
55679;BME280;41573;51.446;-2.018;2023-02-16T16:33:16;97651.44;;;10.26;100.00
55679;BME280;41573;51.446;-2.018;2023-02-16T16:35:48;97658.41;;;10.18;100.00
55679;BME280;41573;51.446;-2.018;2023-02-16T16:38:32;97656.91;;;10.08;100.00
55679;BME280;41573;51.446;-2.018;2023-02-16T16:41:02;97673.97;;;9.97;100.00
55679;BME280;41573;51.446;-2.018;2023-02-16T16:43:36;97649.66;;;9.83;100.00
55679;BME280;41573;51.446;-2.018;2023-02-16T16:46:26;97638.84;;;9.77;100.00
55679;BME280;41573;51.446;-2.018;2023-02-16T16:48:52;97653.09;;;9.76;100.00
55679;BME280;41573;51.446;-2.018;2023-02-16T16:51:39;97655.88;;;9.66;100.00
55679;BME280;41573;51.446;-2.018;2023-02-16T16:54:09;97655.53;;;9.61;100.00
55679;BME280;41573;51.446;-2.018;2023-02-16T16:56:38;97649.03;;;9.55;100.00
55679;BME280;41573;51.446;-2.018;2023-02-16T16:59:40;97643.34;;;9.50;100.00
55679;BME280;41573;51.446;-2.018;2023-02-16T17:02:09;97618.91;;;9.46;100.00
55679;BME280;41573;51.446;-2.018;2023-02-16T17:04:39;97616.56;;;9.43;100.00
55679;BME280;41573;51.446;-2.018;2023-02-16T17:07:05;97598.94;;;9.34;100.00
55679;BME280;41573;51.446;-2.018;2023-02-16T17:13:14;97567.19;;;9.24;100.00
55679;BME280;41573;51.446;-2.018;2023-02-16T17:16:06;97552.03;;;9.17;100.00
55679;BME280;41573;51.446;-2.018;2023-02-16T17:18:49;97547.69;;;9.07;100.00
55679;BME280;41573;51.446;-2.018;2023-02-16T17:21:17;97539.56;;;9.09;100.00
55679;BME280;41573;51.446;-2.018;2023-02-16T17:23:43;97524.56;;;9.00;100.00
55679;BME280;41573;51.446;-2.018;2023-02-16T17:26:14;97518.44;;;8.99;100.00
55679;BME280;41573;51.446;-2.018;2023-02-16T17:28:41;97504.34;;;8.99;100.00
55679;BME280;41573;51.446;-2.018;2023-02-16T17:31:10;97502.13;;;8.94;100.00
55679;BME280;41573;51.446;-2.018;2023-02-16T17:33:40;97494.16;;;8.94;100.00
55679;BME280;41573;51.446;-2.018;2023-02-16T17:36:07;97497.84;;;8.93;100.00
55679;BME280;41573;51.446;-2.018;2023-02-16T17:38:34;97493.50;;;8.92;100.00
55679;BME280;41573;51.446;-2.018;2023-02-16T17:41:00;97465.13;;;8.92;100.00
55679;BME280;41573;51.446;-2.018;2023-02-16T17:43:26;97459.31;;;8.89;100.00
55679;BME280;41573;51.446;-2.018;2023-02-16T17:45:54;97442.06;;;8.85;100.00
55679;BME280;41573;51.446;-2.018;2023-02-16T17:48:21;97445.38;;;8.87;100.00
55679;BME280;41573;51.446;-2.018;2023-02-16T17:50:48;97423.66;;;8.83;100.00
55679;BME280;41573;51.446;-2.018;2023-02-16T17:53:18;97423.47;;;8.85;100.00
55679;BME280;41573;51.446;-2.018;2023-02-16T17:55:44;97426.47;;;8.82;100.00
55679;BME280;41573;51.446;-2.018;2023-02-16T17:58:24;97417.81;;;8.79;100.00
55679;BME280;41573;51.446;-2.018;2023-02-16T18:00:53;97396.91;;;8.76;100.00
55679;BME280;41573;51.446;-2.018;2023-02-16T18:03:19;97394.63;;;8.82;100.00
55679;BME280;41573;51.446;-2.018;2023-02-16T18:05:48;97392.94;;;8.80;100.00
55679;BME280;41573;51.446;-2.018;2023-02-16T18:08:18;97383.47;;;8.78;100.00
55679;BME280;41573;51.446;-2.018;2023-02-16T18:10:48;97370.75;;;8.82;100.00
55679;BME280;41573;51.446;-2.018;2023-02-16T18:13:15;97375.34;;;8.79;100.00
55679;BME280;41573;51.446;-2.018;2023-02-16T18:15:43;97385.66;;;8.83;100.00
55679;BME280;41573;51.446;-2.018;2023-02-16T18:18:15;97386.34;;;8.85;100.00
55679;BME280;41573;51.446;-2.018;2023-02-16T18:20:41;97388.47;;;8.81;100.00
55679;BME280;41573;51.446;-2.018;2023-02-16T18:23:07;97396.09;;;8.76;100.00
55679;BME280;41573;51.446;-2.018;2023-02-16T18:25:33;97396.91;;;8.76;100.00
55679;BME280;41573;51.446;-2.018;2023-02-16T18:27:59;97385.97;;;8.71;100.00
55679;BME280;41573;51.446;-2.018;2023-02-16T18:30:25;97390.94;;;8.74;100.00
55679;BME280;41573;51.446;-2.018;2023-02-16T18:32:50;97387.59;;;8.72;100.00
55679;BME280;41573;51.446;-2.018;2023-02-16T18:35:16;97379.63;;;8.72;100.00
55679;BME280;41573;51.446;-2.018;2023-02-16T18:37:42;97378.97;;;8.70;100.00
55679;BME280;41573;51.446;-2.018;2023-02-16T18:40:11;97380.94;;;8.60;100.00
55679;BME280;41573;51.446;-2.018;2023-02-16T18:53:23;97331.50;;;8.59;100.00
55679;BME280;41573;51.446;-2.018;2023-02-16T18:55:50;97319.22;;;8.58;100.00
55679;BME280;41573;51.446;-2.018;2023-02-16T18:58:23;97308.31;;;8.61;100.00
55679;BME280;41573;51.446;-2.018;2023-02-16T19:00:58;97319.91;;;8.60;100.00
55679;BME280;41573;51.446;-2.018;2023-02-16T19:03:30;97305.47;;;8.62;100.00
55679;BME280;41573;51.446;-2.018;2023-02-16T19:05:59;97295.88;;;8.61;100.00
55679;BME280;41573;51.446;-2.018;2023-02-16T19:08:27;97303.00;;;8.61;100.00
55679;BME280;41573;51.446;-2.018;2023-02-16T19:10:52;97313.44;;;8.62;100.00
55679;BME280;41573;51.446;-2.018;2023-02-16T19:13:18;97314.63;;;8.60;100.00
55679;BME280;41573;51.446;-2.018;2023-02-16T19:15:44;97322.25;;;8.63;100.00
55679;BME280;41573;51.446;-2.018;2023-02-16T19:18:09;97349.59;;;8.63;100.00
55679;BME280;41573;51.446;-2.018;2023-02-16T19:20:35;97348.63;;;8.65;100.00
55679;BME280;41573;51.446;-2.018;2023-02-16T19:23:01;97348.09;;;8.61;100.00
55679;BME280;41573;51.446;-2.018;2023-02-16T19:25:27;97348.78;;;8.63;100.00
55679;BME280;41573;51.446;-2.018;2023-02-16T19:27:53;97337.72;;;8.76;100.00
55679;BME280;41573;51.446;-2.018;2023-02-16T19:30:19;97328.09;;;8.75;100.00
55679;BME280;41573;51.446;-2.018;2023-02-16T19:32:47;97338.22;;;8.79;100.00
55679;BME280;41573;51.446;-2.018;2023-02-16T19:35:15;97340.25;;;8.86;100.00
55679;BME280;41573;51.446;-2.018;2023-02-16T19:37:41;97358.50;;;8.89;100.00
55679;BME280;41573;51.446;-2.018;2023-02-16T19:40:08;97355.66;;;8.90;100.00
55679;BME280;41573;51.446;-2.018;2023-02-16T19:42:35;97367.44;;;8.88;100.00
55679;BME280;41573;51.446;-2.018;2023-02-16T19:45:02;97349.34;;;8.83;100.00
55679;BME280;41573;51.446;-2.018;2023-02-16T19:47:28;97359.16;;;8.91;100.00
55679;BME280;41573;51.446;-2.018;2023-02-16T19:49:56;97367.75;;;8.85;100.00
55679;BME280;41573;51.446;-2.018;2023-02-16T19:52:21;97358.16;;;8.92;100.00
55679;BME280;41573;51.446;-2.018;2023-02-16T19:54:47;97343.91;;;8.93;100.00
55679;BME280;41573;51.446;-2.018;2023-02-16T19:57:14;97339.09;;;8.96;100.00
55679;BME280;41573;51.446;-2.018;2023-02-16T19:59:39;97345.41;;;8.95;100.00
55679;BME280;41573;51.446;-2.018;2023-02-16T20:02:05;97366.31;;;8.99;100.00
55679;BME280;41573;51.446;-2.018;2023-02-16T20:04:30;97359.19;;;8.99;100.00
55679;BME280;41573;51.446;-2.018;2023-02-16T20:06:56;97362.00;;;8.97;100.00
55679;BME280;41573;51.446;-2.018;2023-02-16T20:09:22;97353.53;;;9.02;100.00
55679;BME280;41573;51.446;-2.018;2023-02-16T20:11:52;97337.63;;;9.02;100.00
55679;BME280;41573;51.446;-2.018;2023-02-16T20:14:18;97342.09;;;9.02;100.00
55679;BME280;41573;51.446;-2.018;2023-02-16T20:16:53;97330.81;;;9.00;100.00
55679;BME280;41573;51.446;-2.018;2023-02-16T20:19:18;97321.69;;;9.02;100.00
55679;BME280;41573;51.446;-2.018;2023-02-16T23:16:51;94993.81;;;9.69;100.00
55679;BME280;41573;51.446;-2.018;2023-02-16T23:19:19;94955.13;;;9.73;100.00
55679;BME280;41573;51.446;-2.018;2023-02-16T23:21:46;94911.84;;;9.73;100.00
55679;BME280;41573;51.446;-2.018;2023-02-16T23:24:14;94879.28;;;9.65;100.00
55679;BME280;41573;51.446;-2.018;2023-02-16T23:26:41;94835.94;;;9.65;100.00
55679;BME280;41573;51.446;-2.018;2023-02-16T23:29:06;94766.47;;;9.68;100.00
55679;BME280;41573;51.446;-2.018;2023-02-16T23:31:34;94702.84;;;9.73;100.00
55679;BME280;41573;51.446;-2.018;2023-02-16T23:34:00;94626.91;;;9.72;100.00
55679;BME280;41573;51.446;-2.018;2023-02-16T23:36:34;94551.97;;;9.70;100.00
55679;BME280;41573;51.446;-2.018;2023-02-16T23:39:03;94441.59;;;9.74;100.00
55679;BME280;41573;51.446;-2.018;2023-02-16T23:41:33;94387.34;;;9.70;100.00
55679;BME280;41573;51.446;-2.018;2023-02-16T23:43:59;94309.06;;;9.73;100.00
55679;BME280;41573;51.446;-2.018;2023-02-16T23:46:46;94243.22;;;9.75;100.00
55679;BME280;41573;51.446;-2.018;2023-02-16T23:49:11;94178.16;;;9.72;100.00
55679;BME280;41573;51.446;-2.018;2023-02-16T23:51:37;94162.22;;;9.72;100.00
55679;BME280;41573;51.446;-2.018;2023-02-16T23:54:02;94133.47;;;9.69;100.00
55679;BME280;41573;51.446;-2.018;2023-02-16T23:56:27;94086.28;;;9.71;100.00
55679;BME280;41573;51.446;-2.018;2023-02-16T23:58:58;94041.13;;;9.71;100.00
